sensor_id;sensor_type;location;lat;lon;timestamp;P1;durP1;ratioP1;P2;durP2;ratioP2
84142;SDS011;74260;50.772;7.730;2023-12-14T00:00:30;18.63;;;7.03;;
84142;SDS011;74260;50.772;7.730;2023-12-14T00:01:01;91.38;;;11.50;;
84142;SDS011;74260;50.772;7.730;2023-12-14T00:01:32;26.42;;;7.93;;
84142;SDS011;74260;50.772;7.730;2023-12-14T00:02:02;45.13;;;9.05;;
84142;SDS011;74260;50.772;7.730;2023-12-14T00:02:33;64.47;;;9.98;;
84142;SDS011;74260;50.772;7.730;2023-12-14T00:03:04;50.72;;;9.68;;
84142;SDS011;74260;50.772;7.730;2023-12-14T00:03:34;24.48;;;8.32;;
84142;SDS011;74260;50.772;7.730;2023-12-14T00:04:05;21.83;;;7.78;;
84142;SDS011;74260;50.772;7.730;2023-12-14T00:04:36;32.80;;;8.75;;
84142;SDS011;74260;50.772;7.730;2023-12-14T00:05:06;46.55;;;9.07;;
84142;SDS011;74260;50.772;7.730;2023-12-14T00:05:37;25.77;;;8.13;;
84142;SDS011;74260;50.772;7.730;2023-12-14T00:06:07;58.05;;;10.02;;
84142;SDS011;74260;50.772;7.730;2023-12-14T00:06:38;71.18;;;10.65;;
84142;SDS011;74260;50.772;7.730;2023-12-14T00:07:09;112.03;;;13.00;;
84142;SDS011;74260;50.772;7.730;2023-12-14T00:07:44;109.00;;;13.38;;
84142;SDS011;74260;50.772;7.730;2023-12-14T00:08:16;38.33;;;8.57;;
84142;SDS011;74260;50.772;7.730;2023-12-14T00:08:47;43.88;;;8.60;;
84142;SDS011;74260;50.772;7.730;2023-12-14T00:09:18;38.92;;;8.57;;
84142;SDS011;74260;50.772;7.730;2023-12-14T00:09:48;24.45;;;8.02;;
84142;SDS011;74260;50.772;7.730;2023-12-14T00:10:20;24.25;;;8.70;;
84142;SDS011;74260;50.772;7.730;2023-12-14T00:10:51;21.25;;;8.18;;
84142;SDS011;74260;50.772;7.730;2023-12-14T00:11:22;15.68;;;7.45;;
84142;SDS011;74260;50.772;7.730;2023-12-14T00:11:54;17.30;;;7.47;;
84142;SDS011;74260;50.772;7.730;2023-12-14T00:12:24;15.10;;;7.25;;
84142;SDS011;74260;50.772;7.730;2023-12-14T00:12:56;29.85;;;8.15;;
84142;SDS011;74260;50.772;7.730;2023-12-14T00:13:26;17.40;;;7.63;;
84142;SDS011;74260;50.772;7.730;2023-12-14T00:13:58;20.90;;;7.68;;
84142;SDS011;74260;50.772;7.730;2023-12-14T00:14:28;40.22;;;9.57;;
84142;SDS011;74260;50.772;7.730;2023-12-14T00:14:59;143.27;;;14.82;;
84142;SDS011;74260;50.772;7.730;2023-12-14T00:15:29;142.07;;;16.83;;
84142;SDS011;74260;50.772;7.730;2023-12-14T00:16:00;139.48;;;14.20;;
84142;SDS011;74260;50.772;7.730;2023-12-14T00:16:30;196.77;;;17.73;;
84142;SDS011;74260;50.772;7.730;2023-12-14T00:17:01;283.15;;;23.02;;
84142;SDS011;74260;50.772;7.730;2023-12-14T00:17:31;167.02;;;16.25;;
84142;SDS011;74260;50.772;7.730;2023-12-14T00:18:02;250.73;;;21.65;;
84142;SDS011;74260;50.772;7.730;2023-12-14T00:18:34;189.32;;;18.15;;
84142;SDS011;74260;50.772;7.730;2023-12-14T00:19:06;121.03;;;14.25;;
84142;SDS011;74260;50.772;7.730;2023-12-14T00:19:37;100.40;;;12.55;;
84142;SDS011;74260;50.772;7.730;2023-12-14T00:20:08;125.35;;;14.20;;
84142;SDS011;74260;50.772;7.730;2023-12-14T00:20:38;78.00;;;12.13;;
84142;SDS011;74260;50.772;7.730;2023-12-14T00:21:10;27.10;;;7.80;;
84142;SDS011;74260;50.772;7.730;2023-12-14T00:21:40;51.60;;;9.48;;
84142;SDS011;74260;50.772;7.730;2023-12-14T00:22:12;25.15;;;7.78;;
84142;SDS011;74260;50.772;7.730;2023-12-14T00:22:44;17.05;;;8.40;;
84142;SDS011;74260;50.772;7.730;2023-12-14T00:23:14;17.08;;;8.05;;
84142;SDS011;74260;50.772;7.730;2023-12-14T00:23:46;17.15;;;8.27;;
84142;SDS011;74260;50.772;7.730;2023-12-14T00:24:17;17.23;;;8.63;;
84142;SDS011;74260;50.772;7.730;2023-12-14T00:24:47;16.75;;;7.90;;
84142;SDS011;74260;50.772;7.730;2023-12-14T00:25:17;22.10;;;7.57;;
84142;SDS011;74260;50.772;7.730;2023-12-14T00:25:48;52.70;;;9.38;;
84142;SDS011;74260;50.772;7.730;2023-12-14T00:26:19;28.48;;;7.88;;
84142;SDS011;74260;50.772;7.730;2023-12-14T00:26:50;25.00;;;7.80;;
84142;SDS011;74260;50.772;7.730;2023-12-14T00:27:22;107.95;;;11.93;;
84142;SDS011;74260;50.772;7.730;2023-12-14T00:27:54;69.43;;;11.07;;
84142;SDS011;74260;50.772;7.730;2023-12-14T00:28:24;45.63;;;9.10;;
84142;SDS011;74260;50.772;7.730;2023-12-14T00:28:54;40.15;;;10.98;;
84142;SDS011;74260;50.772;7.730;2023-12-14T00:29:26;21.98;;;8.48;;
84142;SDS011;74260;50.772;7.730;2023-12-14T00:29:57;33.22;;;9.10;;
84142;SDS011;74260;50.772;7.730;2023-12-14T00:30:28;21.73;;;7.97;;
84142;SDS011;74260;50.772;7.730;2023-12-14T00:31:00;26.52;;;8.18;;
84142;SDS011;74260;50.772;7.730;2023-12-14T00:31:31;18.67;;;8.63;;
84142;SDS011;74260;50.772;7.730;2023-12-14T00:32:01;22.70;;;9.25;;
84142;SDS011;74260;50.772;7.730;2023-12-14T00:32:31;19.55;;;8.52;;
84142;SDS011;74260;50.772;7.730;2023-12-14T00:33:02;17.05;;;8.07;;
84142;SDS011;74260;50.772;7.730;2023-12-14T00:33:34;16.88;;;8.55;;
84142;SDS011;74260;50.772;7.730;2023-12-14T00:34:04;18.30;;;7.88;;
84142;SDS011;74260;50.772;7.730;2023-12-14T00:34:36;15.65;;;7.90;;
84142;SDS011;74260;50.772;7.730;2023-12-14T00:35:07;16.92;;;8.10;;
84142;SDS011;74260;50.772;7.730;2023-12-14T00:35:38;17.35;;;8.50;;
84142;SDS011;74260;50.772;7.730;2023-12-14T00:36:08;20.02;;;9.70;;
84142;SDS011;74260;50.772;7.730;2023-12-14T00:36:39;20.30;;;9.57;;
84142;SDS011;74260;50.772;7.730;2023-12-14T00:37:10;20.77;;;9.80;;
84142;SDS011;74260;50.772;7.730;2023-12-14T00:37:41;20.00;;;9.25;;
84142;SDS011;74260;50.772;7.730;2023-12-14T00:38:12;19.95;;;9.30;;
84142;SDS011;74260;50.772;7.730;2023-12-14T00:38:43;16.27;;;8.18;;
84142;SDS011;74260;50.772;7.730;2023-12-14T00:39:14;15.95;;;8.15;;
84142;SDS011;74260;50.772;7.730;2023-12-14T00:39:46;15.98;;;8.52;;
84142;SDS011;74260;50.772;7.730;2023-12-14T00:40:16;19.52;;;8.55;;
84142;SDS011;74260;50.772;7.730;2023-12-14T00:40:48;16.17;;;7.65;;
84142;SDS011;74260;50.772;7.730;2023-12-14T00:41:19;14.60;;;7.90;;
84142;SDS011;74260;50.772;7.730;2023-12-14T00:41:49;15.30;;;7.35;;
84142;SDS011;74260;50.772;7.730;2023-12-14T00:42:20;15.57;;;7.03;;
84142;SDS011;74260;50.772;7.730;2023-12-14T00:42:51;11.02;;;6.32;;
84142;SDS011;74260;50.772;7.730;2023-12-14T00:43:22;13.15;;;7.03;;
84142;SDS011;74260;50.772;7.730;2023-12-14T00:43:54;14.43;;;7.03;;
84142;SDS011;74260;50.772;7.730;2023-12-14T00:44:24;14.52;;;7.03;;
84142;SDS011;74260;50.772;7.730;2023-12-14T00:44:56;16.08;;;7.20;;
84142;SDS011;74260;50.772;7.730;2023-12-14T00:45:27;18.40;;;6.93;;
84142;SDS011;74260;50.772;7.730;2023-12-14T00:45:57;11.68;;;6.80;;
84142;SDS011;74260;50.772;7.730;2023-12-14T00:46:27;21.13;;;8.65;;
84142;SDS011;74260;50.772;7.730;2023-12-14T00:46:58;15.98;;;7.88;;
84142;SDS011;74260;50.772;7.730;2023-12-14T00:47:30;15.98;;;7.82;;
84142;SDS011;74260;50.772;7.730;2023-12-14T00:48:00;15.20;;;8.35;;
84142;SDS011;74260;50.772;7.730;2023-12-14T00:48:30;19.25;;;8.00;;
84142;SDS011;74260;50.772;7.730;2023-12-14T00:49:01;18.10;;;8.02;;
84142;SDS011;74260;50.772;7.730;2023-12-14T00:49:32;18.52;;;7.13;;
84142;SDS011;74260;50.772;7.730;2023-12-14T00:50:03;19.20;;;8.13;;
84142;SDS011;74260;50.772;7.730;2023-12-14T00:50:34;22.20;;;9.13;;
84142;SDS011;74260;50.772;7.730;2023-12-14T00:51:04;17.15;;;8.27;;
84142;SDS011;74260;50.772;7.730;2023-12-14T00:51:36;17.42;;;8.35;;
84142;SDS011;74260;50.772;7.730;2023-12-14T00:52:07;18.35;;;7.90;;
84142;SDS011;74260;50.772;7.730;2023-12-14T00:52:39;19.52;;;8.20;;
84142;SDS011;74260;50.772;7.730;2023-12-14T00:53:10;18.30;;;7.72;;
84142;SDS011;74260;50.772;7.730;2023-12-14T00:53:44;19.92;;;8.15;;
84142;SDS011;74260;50.772;7.730;2023-12-14T00:54:16;18.67;;;7.63;;
84142;SDS011;74260;50.772;7.730;2023-12-14T00:54:46;26.50;;;8.43;;
84142;SDS011;74260;50.772;7.730;2023-12-14T00:55:17;18.85;;;8.30;;
84142;SDS011;74260;50.772;7.730;2023-12-14T00:55:48;23.65;;;8.05;;
84142;SDS011;74260;50.772;7.730;2023-12-14T00:56:18;29.63;;;8.00;;
84142;SDS011;74260;50.772;7.730;2023-12-14T00:56:50;23.35;;;7.68;;
84142;SDS011;74260;50.772;7.730;2023-12-14T00:57:20;31.42;;;8.13;;
84142;SDS011;74260;50.772;7.730;2023-12-14T00:57:52;25.88;;;9.27;;
84142;SDS011;74260;50.772;7.730;2023-12-14T00:58:22;23.55;;;7.78;;
84142;SDS011;74260;50.772;7.730;2023-12-14T00:58:53;30.50;;;8.25;;
84142;SDS011;74260;50.772;7.730;2023-12-14T00:59:23;26.25;;;8.35;;
84142;SDS011;74260;50.772;7.730;2023-12-14T00:59:54;36.72;;;8.43;;
84142;SDS011;74260;50.772;7.730;2023-12-14T01:00:26;27.75;;;8.23;;
84142;SDS011;74260;50.772;7.730;2023-12-14T01:00:56;22.00;;;8.73;;
84142;SDS011;74260;50.772;7.730;2023-12-14T01:01:27;27.55;;;8.40;;
84142;SDS011;74260;50.772;7.730;2023-12-14T01:01:58;24.55;;;8.48;;
84142;SDS011;74260;50.772;7.730;2023-12-14T01:02:28;27.95;;;9.00;;
84142;SDS011;74260;50.772;7.730;2023-12-14T01:03:00;25.35;;;8.02;;
84142;SDS011;74260;50.772;7.730;2023-12-14T01:03:30;32.40;;;8.15;;
84142;SDS011;74260;50.772;7.730;2023-12-14T01:04:02;29.80;;;8.50;;
84142;SDS011;74260;50.772;7.730;2023-12-14T01:04:32;37.35;;;8.23;;
84142;SDS011;74260;50.772;7.730;2023-12-14T01:05:03;32.03;;;8.40;;
84142;SDS011;74260;50.772;7.730;2023-12-14T01:05:34;29.58;;;8.68;;
84142;SDS011;74260;50.772;7.730;2023-12-14T01:06:04;24.85;;;7.65;;
84142;SDS011;74260;50.772;7.730;2023-12-14T01:06:35;22.63;;;7.75;;
84142;SDS011;74260;50.772;7.730;2023-12-14T01:07:05;29.13;;;8.77;;
84142;SDS011;74260;50.772;7.730;2023-12-14T01:07:38;20.88;;;7.70;;
84142;SDS011;74260;50.772;7.730;2023-12-14T01:08:08;35.25;;;7.78;;
84142;SDS011;74260;50.772;7.730;2023-12-14T01:08:39;28.92;;;7.55;;
84142;SDS011;74260;50.772;7.730;2023-12-14T01:09:09;27.83;;;8.27;;
84142;SDS011;74260;50.772;7.730;2023-12-14T01:09:40;28.35;;;8.88;;
84142;SDS011;74260;50.772;7.730;2023-12-14T01:10:10;28.80;;;8.63;;
84142;SDS011;74260;50.772;7.730;2023-12-14T01:10:42;41.65;;;8.98;;
84142;SDS011;74260;50.772;7.730;2023-12-14T01:11:12;27.17;;;8.45;;
84142;SDS011;74260;50.772;7.730;2023-12-14T01:11:44;30.33;;;8.18;;
84142;SDS011;74260;50.772;7.730;2023-12-14T01:12:15;24.23;;;7.90;;
84142;SDS011;74260;50.772;7.730;2023-12-14T01:12:46;25.23;;;8.13;;
84142;SDS011;74260;50.772;7.730;2023-12-14T01:13:18;36.42;;;8.93;;
84142;SDS011;74260;50.772;7.730;2023-12-14T01:13:48;24.67;;;8.05;;
84142;SDS011;74260;50.772;7.730;2023-12-14T01:14:18;21.88;;;8.68;;
84142;SDS011;74260;50.772;7.730;2023-12-14T01:14:50;25.55;;;8.40;;
84142;SDS011;74260;50.772;7.730;2023-12-14T01:15:20;24.08;;;9.60;;
84142;SDS011;74260;50.772;7.730;2023-12-14T01:15:51;27.17;;;9.27;;
84142;SDS011;74260;50.772;7.730;2023-12-14T01:16:21;39.05;;;9.65;;
84142;SDS011;74260;50.772;7.730;2023-12-14T01:16:51;22.42;;;8.35;;
84142;SDS011;74260;50.772;7.730;2023-12-14T01:17:22;37.55;;;10.35;;
84142;SDS011;74260;50.772;7.730;2023-12-14T01:17:52;30.98;;;9.15;;
84142;SDS011;74260;50.772;7.730;2023-12-14T01:18:22;28.85;;;9.88;;
84142;SDS011;74260;50.772;7.730;2023-12-14T01:18:54;30.92;;;8.27;;
84142;SDS011;74260;50.772;7.730;2023-12-14T01:19:25;21.73;;;7.45;;
84142;SDS011;74260;50.772;7.730;2023-12-14T01:19:55;22.67;;;8.60;;
84142;SDS011;74260;50.772;7.730;2023-12-14T01:20:25;21.30;;;6.75;;
84142;SDS011;74260;50.772;7.730;2023-12-14T01:20:57;17.40;;;6.45;;
84142;SDS011;74260;50.772;7.730;2023-12-14T01:21:28;20.00;;;7.35;;
84142;SDS011;74260;50.772;7.730;2023-12-14T01:21:58;16.67;;;6.82;;
84142;SDS011;74260;50.772;7.730;2023-12-14T01:22:29;20.70;;;7.03;;
84142;SDS011;74260;50.772;7.730;2023-12-14T01:22:59;20.20;;;7.60;;
84142;SDS011;74260;50.772;7.730;2023-12-14T01:23:30;18.83;;;7.05;;
84142;SDS011;74260;50.772;7.730;2023-12-14T01:24:00;16.70;;;7.03;;
84142;SDS011;74260;50.772;7.730;2023-12-14T01:24:31;18.67;;;7.60;;
84142;SDS011;74260;50.772;7.730;2023-12-14T01:25:02;15.60;;;7.65;;
84142;SDS011;74260;50.772;7.730;2023-12-14T01:25:33;20.40;;;8.13;;
84142;SDS011;74260;50.772;7.730;2023-12-14T01:26:03;17.42;;;8.80;;
84142;SDS011;74260;50.772;7.730;2023-12-14T01:26:34;22.30;;;8.93;;
84142;SDS011;74260;50.772;7.730;2023-12-14T01:27:04;27.50;;;8.65;;
84142;SDS011;74260;50.772;7.730;2023-12-14T01:27:35;17.45;;;7.47;;
84142;SDS011;74260;50.772;7.730;2023-12-14T01:28:05;11.43;;;7.13;;
84142;SDS011;74260;50.772;7.730;2023-12-14T01:28:36;30.60;;;8.70;;
84142;SDS011;74260;50.772;7.730;2023-12-14T01:29:06;24.23;;;8.43;;
84142;SDS011;74260;50.772;7.730;2023-12-14T01:29:36;15.75;;;7.78;;
84142;SDS011;74260;50.772;7.730;2023-12-14T01:30:07;19.25;;;8.20;;
84142;SDS011;74260;50.772;7.730;2023-12-14T01:30:38;19.13;;;7.90;;
84142;SDS011;74260;50.772;7.730;2023-12-14T01:31:10;18.48;;;7.72;;
84142;SDS011;74260;50.772;7.730;2023-12-14T01:31:42;19.77;;;9.15;;
84142;SDS011;74260;50.772;7.730;2023-12-14T01:32:12;16.65;;;7.35;;
84142;SDS011;74260;50.772;7.730;2023-12-14T01:32:42;15.32;;;7.82;;
84142;SDS011;74260;50.772;7.730;2023-12-14T01:33:13;28.60;;;8.73;;
84142;SDS011;74260;50.772;7.730;2023-12-14T01:33:43;27.13;;;9.35;;
84142;SDS011;74260;50.772;7.730;2023-12-14T01:34:15;25.95;;;9.05;;
84142;SDS011;74260;50.772;7.730;2023-12-14T01:34:46;29.02;;;9.93;;
84142;SDS011;74260;50.772;7.730;2023-12-14T01:35:18;24.20;;;10.20;;
84142;SDS011;74260;50.772;7.730;2023-12-14T01:35:49;20.80;;;9.07;;
84142;SDS011;74260;50.772;7.730;2023-12-14T01:36:24;26.88;;;9.75;;
84142;SDS011;74260;50.772;7.730;2023-12-14T01:36:55;26.35;;;10.63;;
84142;SDS011;74260;50.772;7.730;2023-12-14T01:37:26;24.15;;;8.63;;
84142;SDS011;74260;50.772;7.730;2023-12-14T01:37:57;26.02;;;9.68;;
84142;SDS011;74260;50.772;7.730;2023-12-14T01:38:28;27.63;;;10.57;;
84142;SDS011;74260;50.772;7.730;2023-12-14T01:38:59;22.80;;;9.73;;
84142;SDS011;74260;50.772;7.730;2023-12-14T01:39:30;18.52;;;9.43;;
84142;SDS011;74260;50.772;7.730;2023-12-14T01:40:00;22.23;;;9.23;;
84142;SDS011;74260;50.772;7.730;2023-12-14T01:40:31;25.75;;;9.02;;
84142;SDS011;74260;50.772;7.730;2023-12-14T01:41:01;22.25;;;8.70;;
84142;SDS011;74260;50.772;7.730;2023-12-14T01:41:32;22.08;;;9.52;;
84142;SDS011;74260;50.772;7.730;2023-12-14T01:42:04;19.55;;;9.07;;
84142;SDS011;74260;50.772;7.730;2023-12-14T01:42:34;22.23;;;9.85;;
84142;SDS011;74260;50.772;7.730;2023-12-14T01:43:08;23.85;;;10.38;;
84142;SDS011;74260;50.772;7.730;2023-12-14T01:43:40;23.23;;;9.27;;
84142;SDS011;74260;50.772;7.730;2023-12-14T01:44:12;18.48;;;8.90;;
84142;SDS011;74260;50.772;7.730;2023-12-14T01:44:42;17.52;;;8.30;;
84142;SDS011;74260;50.772;7.730;2023-12-14T01:45:13;20.80;;;8.85;;
84142;SDS011;74260;50.772;7.730;2023-12-14T01:45:48;21.60;;;8.82;;
84142;SDS011;74260;50.772;7.730;2023-12-14T01:46:18;19.92;;;8.73;;
84142;SDS011;74260;50.772;7.730;2023-12-14T01:46:50;22.58;;;8.73;;
84142;SDS011;74260;50.772;7.730;2023-12-14T01:47:21;28.88;;;9.77;;
84142;SDS011;74260;50.772;7.730;2023-12-14T01:47:51;23.13;;;9.38;;
84142;SDS011;74260;50.772;7.730;2023-12-14T01:48:22;31.42;;;10.05;;
84142;SDS011;74260;50.772;7.730;2023-12-14T01:48:52;23.00;;;9.45;;
84142;SDS011;74260;50.772;7.730;2023-12-14T01:49:23;28.45;;;9.65;;
84142;SDS011;74260;50.772;7.730;2023-12-14T01:49:54;24.73;;;9.77;;
84142;SDS011;74260;50.772;7.730;2023-12-14T01:50:24;37.50;;;9.88;;
84142;SDS011;74260;50.772;7.730;2023-12-14T01:50:55;23.15;;;9.57;;
84142;SDS011;74260;50.772;7.730;2023-12-14T01:51:25;37.40;;;9.95;;
84142;SDS011;74260;50.772;7.730;2023-12-14T01:51:56;21.52;;;9.20;;
84142;SDS011;74260;50.772;7.730;2023-12-14T01:52:28;22.60;;;9.23;;
84142;SDS011;74260;50.772;7.730;2023-12-14T01:52:58;28.35;;;10.65;;
84142;SDS011;74260;50.772;7.730;2023-12-14T01:53:28;28.33;;;9.57;;
84142;SDS011;74260;50.772;7.730;2023-12-14T01:53:59;29.02;;;9.75;;
84142;SDS011;74260;50.772;7.730;2023-12-14T01:54:29;31.23;;;9.98;;
84142;SDS011;74260;50.772;7.730;2023-12-14T01:55:00;26.00;;;9.02;;
84142;SDS011;74260;50.772;7.730;2023-12-14T01:55:32;28.25;;;9.43;;
84142;SDS011;74260;50.772;7.730;2023-12-14T01:56:03;28.38;;;10.07;;
84142;SDS011;74260;50.772;7.730;2023-12-14T01:56:34;24.50;;;9.73;;
84142;SDS011;74260;50.772;7.730;2023-12-14T01:57:04;33.22;;;10.43;;
84142;SDS011;74260;50.772;7.730;2023-12-14T01:57:37;34.42;;;9.82;;
84142;SDS011;74260;50.772;7.730;2023-12-14T01:58:07;56.42;;;11.27;;
84142;SDS011;74260;50.772;7.730;2023-12-14T01:58:39;35.35;;;10.48;;
84142;SDS011;74260;50.772;7.730;2023-12-14T01:59:09;25.77;;;10.40;;
84142;SDS011;74260;50.772;7.730;2023-12-14T01:59:40;38.33;;;10.38;;
84142;SDS011;74260;50.772;7.730;2023-12-14T02:00:13;24.58;;;10.18;;
84142;SDS011;74260;50.772;7.730;2023-12-14T02:02:14;38.75;;;11.82;;
84142;SDS011;74260;50.772;7.730;2023-12-14T02:02:45;49.40;;;11.13;;
84142;SDS011;74260;50.772;7.730;2023-12-14T02:03:16;82.50;;;13.45;;
84142;SDS011;74260;50.772;7.730;2023-12-14T02:03:51;129.95;;;17.77;;
84142;SDS011;74260;50.772;7.730;2023-12-14T02:04:23;110.25;;;14.20;;
84142;SDS011;74260;50.772;7.730;2023-12-14T02:04:54;28.75;;;10.55;;
84142;SDS011;74260;50.772;7.730;2023-12-14T02:05:26;29.35;;;11.52;;
84142;SDS011;74260;50.772;7.730;2023-12-14T02:05:57;36.70;;;11.23;;
84142;SDS011;74260;50.772;7.730;2023-12-14T02:06:27;34.72;;;12.32;;
84142;SDS011;74260;50.772;7.730;2023-12-14T02:06:58;35.55;;;12.07;;
84142;SDS011;74260;50.772;7.730;2023-12-14T02:07:30;40.85;;;12.35;;
84142;SDS011;74260;50.772;7.730;2023-12-14T02:08:01;54.50;;;12.73;;
84142;SDS011;74260;50.772;7.730;2023-12-14T02:08:32;61.30;;;13.35;;
84142;SDS011;74260;50.772;7.730;2023-12-14T02:09:02;62.20;;;12.95;;
84142;SDS011;74260;50.772;7.730;2023-12-14T02:09:33;86.65;;;12.73;;
84142;SDS011;74260;50.772;7.730;2023-12-14T02:10:04;40.47;;;11.80;;
84142;SDS011;74260;50.772;7.730;2023-12-14T02:10:35;33.10;;;11.07;;
84142;SDS011;74260;50.772;7.730;2023-12-14T02:11:06;31.48;;;11.68;;
84142;SDS011;74260;50.772;7.730;2023-12-14T02:11:36;32.45;;;12.05;;
84142;SDS011;74260;50.772;7.730;2023-12-14T02:12:07;30.60;;;12.13;;
84142;SDS011;74260;50.772;7.730;2023-12-14T02:12:37;27.30;;;11.45;;
84142;SDS011;74260;50.772;7.730;2023-12-14T02:13:07;39.28;;;12.00;;
84142;SDS011;74260;50.772;7.730;2023-12-14T02:13:38;34.28;;;10.85;;
84142;SDS011;74260;50.772;7.730;2023-12-14T02:14:09;38.42;;;11.45;;
84142;SDS011;74260;50.772;7.730;2023-12-14T02:14:40;34.35;;;10.80;;
84142;SDS011;74260;50.772;7.730;2023-12-14T02:15:42;29.07;;;10.17;;
84142;SDS011;74260;50.772;7.730;2023-12-14T02:16:13;32.03;;;10.35;;
84142;SDS011;74260;50.772;7.730;2023-12-14T02:16:43;26.80;;;9.70;;
84142;SDS011;74260;50.772;7.730;2023-12-14T02:17:14;40.58;;;11.60;;
84142;SDS011;74260;50.772;7.730;2023-12-14T02:17:44;35.53;;;10.40;;
84142;SDS011;74260;50.772;7.730;2023-12-14T02:18:15;37.78;;;10.70;;
84142;SDS011;74260;50.772;7.730;2023-12-14T02:18:45;29.83;;;11.13;;
84142;SDS011;74260;50.772;7.730;2023-12-14T02:19:15;35.47;;;11.40;;
84142;SDS011;74260;50.772;7.730;2023-12-14T02:19:46;35.70;;;12.32;;
84142;SDS011;74260;50.772;7.730;2023-12-14T02:20:16;30.70;;;10.98;;
84142;SDS011;74260;50.772;7.730;2023-12-14T02:20:47;28.88;;;10.95;;
84142;SDS011;74260;50.772;7.730;2023-12-14T02:21:18;28.15;;;11.48;;
84142;SDS011;74260;50.772;7.730;2023-12-14T02:21:50;34.72;;;12.18;;
84142;SDS011;74260;50.772;7.730;2023-12-14T02:22:20;30.08;;;10.82;;
84142;SDS011;74260;50.772;7.730;2023-12-14T02:22:54;29.77;;;10.20;;
84142;SDS011;74260;50.772;7.730;2023-12-14T02:23:26;36.30;;;10.45;;
84142;SDS011;74260;50.772;7.730;2023-12-14T02:23:56;32.20;;;11.52;;
84142;SDS011;74260;50.772;7.730;2023-12-14T02:24:27;30.88;;;10.18;;
84142;SDS011;74260;50.772;7.730;2023-12-14T02:24:58;32.45;;;10.30;;
84142;SDS011;74260;50.772;7.730;2023-12-14T02:25:29;33.67;;;11.00;;
84142;SDS011;74260;50.772;7.730;2023-12-14T02:25:59;44.20;;;10.38;;
84142;SDS011;74260;50.772;7.730;2023-12-14T02:26:30;23.60;;;10.23;;
84142;SDS011;74260;50.772;7.730;2023-12-14T02:27:02;32.00;;;10.15;;
84142;SDS011;74260;50.772;7.730;2023-12-14T02:27:33;36.40;;;9.82;;
84142;SDS011;74260;50.772;7.730;2023-12-14T02:28:03;37.97;;;10.80;;
84142;SDS011;74260;50.772;7.730;2023-12-14T02:28:34;33.42;;;10.90;;
84142;SDS011;74260;50.772;7.730;2023-12-14T02:29:04;33.42;;;10.15;;
84142;SDS011;74260;50.772;7.730;2023-12-14T02:29:35;31.50;;;11.27;;
84142;SDS011;74260;50.772;7.730;2023-12-14T02:30:05;30.65;;;10.38;;
84142;SDS011;74260;50.772;7.730;2023-12-14T02:30:37;30.75;;;10.80;;
84142;SDS011;74260;50.772;7.730;2023-12-14T02:31:10;42.00;;;11.20;;
84142;SDS011;74260;50.772;7.730;2023-12-14T02:31:40;33.90;;;10.88;;
84142;SDS011;74260;50.772;7.730;2023-12-14T02:32:11;30.75;;;11.23;;
84142;SDS011;74260;50.772;7.730;2023-12-14T02:32:41;31.67;;;10.60;;
84142;SDS011;74260;50.772;7.730;2023-12-14T02:33:12;27.98;;;10.15;;
84142;SDS011;74260;50.772;7.730;2023-12-14T02:33:44;42.38;;;10.63;;
84142;SDS011;74260;50.772;7.730;2023-12-14T02:34:16;38.13;;;10.85;;
84142;SDS011;74260;50.772;7.730;2023-12-14T02:34:47;32.10;;;10.43;;
84142;SDS011;74260;50.772;7.730;2023-12-14T02:35:18;45.03;;;12.23;;
84142;SDS011;74260;50.772;7.730;2023-12-14T02:35:48;37.25;;;11.15;;
84142;SDS011;74260;50.772;7.730;2023-12-14T02:36:18;36.17;;;10.48;;
84142;SDS011;74260;50.772;7.730;2023-12-14T02:36:49;47.70;;;10.88;;
84142;SDS011;74260;50.772;7.730;2023-12-14T02:37:19;39.95;;;11.02;;
84142;SDS011;74260;50.772;7.730;2023-12-14T02:37:51;41.10;;;11.70;;
84142;SDS011;74260;50.772;7.730;2023-12-14T02:38:21;37.53;;;11.25;;
84142;SDS011;74260;50.772;7.730;2023-12-14T02:38:52;57.72;;;11.73;;
84142;SDS011;74260;50.772;7.730;2023-12-14T02:39:23;41.78;;;10.90;;
84142;SDS011;74260;50.772;7.730;2023-12-14T02:39:53;34.85;;;10.18;;
84142;SDS011;74260;50.772;7.730;2023-12-14T02:40:24;42.65;;;10.73;;
84142;SDS011;74260;50.772;7.730;2023-12-14T02:40:55;58.85;;;12.55;;
84142;SDS011;74260;50.772;7.730;2023-12-14T02:41:26;55.08;;;11.35;;
84142;SDS011;74260;50.772;7.730;2023-12-14T02:41:56;50.80;;;11.23;;
84142;SDS011;74260;50.772;7.730;2023-12-14T02:42:27;55.20;;;10.00;;
84142;SDS011;74260;50.772;7.730;2023-12-14T02:42:58;33.92;;;8.40;;
84142;SDS011;74260;50.772;7.730;2023-12-14T02:43:31;25.58;;;9.05;;
84142;SDS011;74260;50.772;7.730;2023-12-14T02:44:03;27.98;;;8.57;;
84142;SDS011;74260;50.772;7.730;2023-12-14T02:44:34;28.80;;;9.02;;
84142;SDS011;74260;50.772;7.730;2023-12-14T02:45:05;19.17;;;8.15;;
84142;SDS011;74260;50.772;7.730;2023-12-14T02:45:36;65.97;;;9.85;;
84142;SDS011;74260;50.772;7.730;2023-12-14T02:46:08;32.63;;;8.57;;
84142;SDS011;74260;50.772;7.730;2023-12-14T02:46:38;61.25;;;11.30;;
84142;SDS011;74260;50.772;7.730;2023-12-14T02:47:09;88.65;;;11.88;;
84142;SDS011;74260;50.772;7.730;2023-12-14T02:47:39;113.55;;;13.15;;
84142;SDS011;74260;50.772;7.730;2023-12-14T02:48:09;84.30;;;12.27;;
84142;SDS011;74260;50.772;7.730;2023-12-14T02:48:43;87.70;;;13.30;;
84142;SDS011;74260;50.772;7.730;2023-12-14T02:49:13;121.78;;;13.30;;
84142;SDS011;74260;50.772;7.730;2023-12-14T02:49:44;158.73;;;17.08;;
84142;SDS011;74260;50.772;7.730;2023-12-14T02:50:14;217.38;;;22.15;;
84142;SDS011;74260;50.772;7.730;2023-12-14T02:50:44;203.27;;;16.88;;
84142;SDS011;74260;50.772;7.730;2023-12-14T02:51:16;145.07;;;16.08;;
84142;SDS011;74260;50.772;7.730;2023-12-14T02:51:47;119.40;;;15.65;;
84142;SDS011;74260;50.772;7.730;2023-12-14T02:52:20;87.70;;;13.20;;
84142;SDS011;74260;50.772;7.730;2023-12-14T02:52:50;110.32;;;15.20;;
84142;SDS011;74260;50.772;7.730;2023-12-14T02:53:20;188.90;;;20.63;;
84142;SDS011;74260;50.772;7.730;2023-12-14T02:53:51;54.03;;;12.50;;
84142;SDS011;74260;50.772;7.730;2023-12-14T02:54:22;105.55;;;17.13;;
84142;SDS011;74260;50.772;7.730;2023-12-14T02:54:54;110.18;;;16.45;;
84142;SDS011;74260;50.772;7.730;2023-12-14T02:55:24;67.70;;;13.00;;
84142;SDS011;74260;50.772;7.730;2023-12-14T02:55:56;41.63;;;12.88;;
84142;SDS011;74260;50.772;7.730;2023-12-14T02:56:26;83.70;;;15.18;;
84142;SDS011;74260;50.772;7.730;2023-12-14T02:56:58;46.05;;;13.80;;
84142;SDS011;74260;50.772;7.730;2023-12-14T02:57:28;47.03;;;14.15;;
84142;SDS011;74260;50.772;7.730;2023-12-14T02:57:58;57.08;;;14.85;;
84142;SDS011;74260;50.772;7.730;2023-12-14T02:58:29;48.67;;;15.35;;
84142;SDS011;74260;50.772;7.730;2023-12-14T02:58:59;48.45;;;13.60;;
84142;SDS011;74260;50.772;7.730;2023-12-14T02:59:30;48.22;;;14.80;;
84142;SDS011;74260;50.772;7.730;2023-12-14T03:00:00;48.70;;;13.63;;
84142;SDS011;74260;50.772;7.730;2023-12-14T03:00:31;38.70;;;13.57;;
84142;SDS011;74260;50.772;7.730;2023-12-14T03:01:04;41.50;;;14.18;;
84142;SDS011;74260;50.772;7.730;2023-12-14T03:01:36;37.05;;;13.85;;
84142;SDS011;74260;50.772;7.730;2023-12-14T03:02:06;36.70;;;14.02;;
84142;SDS011;74260;50.772;7.730;2023-12-14T03:02:37;37.28;;;14.80;;
84142;SDS011;74260;50.772;7.730;2023-12-14T03:03:07;36.63;;;14.60;;
84142;SDS011;74260;50.772;7.730;2023-12-14T03:03:38;45.55;;;14.75;;
84142;SDS011;74260;50.772;7.730;2023-12-14T03:04:09;38.13;;;14.25;;
84142;SDS011;74260;50.772;7.730;2023-12-14T03:04:39;45.67;;;14.32;;